Terminal Aerodrome Forecast
Issued by NWS

Home | Current Version | Previous Version | Text Only | Print | Product List | Glossary On
Versions: 1 2 3 4 5 6 7 8 9 10 11 12 13 14 15 16 17 18 19 20 21 22 23 24 25 26 27 28 29 30
000
FTAK31 PANC 051125
TAFAHO
TAF
PAHO 051125Z 0512/0612 VRB04KT P6SM VCFG SCT008 OVC011
      TEMPO 0512/0516 6SM BR BKN008 OVC013
     FM051800 VRB03KT P6SM SCT008 OVC018
     FM052100 26007KT P6SM BKN035=

USA.gov is the U.S. government's official web portal to all federal, state and local government web resources and services.